Hai Hua — XUDB9 — position and weather

sailwx.info

Track history (hours):
 
Tides and Currents Weather Stations Pressure Air Temp Water Temp Dewpoint Dewpoint Depression Visibility Wind Speed Wind Dir Waves Ship Positions

Hai Hua

Last reported at 2015-Jul-28 01:27 UTC. Time now 2015-Jul-28 10:24 UTC.
Position N 29°59' E 121°47'.

Length 69 m; draft 5.3 m.

Type: Cargo ship. MMSI: 515171000.

Date/timePositionNaut miles runAvg speedWind from/ knotsBaromVisibWave heightAir tempDewpointWater temp
2015-Jul-28 01:27N 29°59' E 121°47'12 5.2
2015-Jul-27 23:11N 30°11' E 121°46'21 0.8
2015-Jul-26 22:29N 30°27' E 122°01'9 9.6
2015-Jul-26 21:33N 30°33' E 122°09'10 9.4
2015-Jul-26 20:32N 30°41' E 122°14'9 9.6
2015-Jul-26 19:33N 30°50' E 122°19'9 9.5
2015-Jul-26 18:33N 30°55' E 122°28'9 8.7
2015-Jul-26 17:33N 31°03' E 122°31'10 9.6
2015-Jul-26 16:33N 31°13' E 122°32'10 8.5
2015-Jul-26 15:24N 31°20' E 122°40'18 9.0
2015-Jul-26 13:21N 31°35' E 122°52'18 9.0
2015-Jul-26 11:20N 31°49' E 123°06'  
2015-Jul-20 07:24N 35°08' E 129°17'47310.3
2015-Jul-18 09:33N 29°39' E 122°34'14 9.7
2015-Jul-18 08:05N 29°27' E 122°26'  
Track history (hours):
 
Tides and Currents Weather Stations Pressure Air Temp Water Temp Dewpoint Dewpoint Depression Visibility Wind Speed Wind Dir Waves Ship Positions

Hai Hua

Last reported at 2015-Jul-28 01:27 UTC. Time now 2015-Jul-28 10:24 UTC.
Position N 29°59' E 121°47'.

Length 69 m; draft 5.3 m.

Type: Cargo ship. MMSI: 515171000.

Date/timePositionNaut miles runAvg speedWind from/ knotsBaromVisibWave heightAir tempDewpointWater temp
2015-Jul-28 01:27N 29°59' E 121°47'12 5.2
2015-Jul-27 23:11N 30°11' E 121°46'21 0.8
2015-Jul-26 22:29N 30°27' E 122°01'9 9.6
2015-Jul-26 21:33N 30°33' E 122°09'10 9.4
2015-Jul-26 20:32N 30°41' E 122°14'9 9.6
2015-Jul-26 19:33N 30°50' E 122°19'9 9.5
2015-Jul-26 18:33N 30°55' E 122°28'9 8.7
2015-Jul-26 17:33N 31°03' E 122°31'10 9.6
2015-Jul-26 16:33N 31°13' E 122°32'10 8.5
2015-Jul-26 15:24N 31°20' E 122°40'18 9.0
2015-Jul-26 13:21N 31°35' E 122°52'18 9.0
2015-Jul-26 11:20N 31°49' E 123°06'  
2015-Jul-20 07:24N 35°08' E 129°17'47310.3
2015-Jul-18 09:33N 29°39' E 122°34'14 9.7
2015-Jul-18 08:05N 29°27' E 122°26'  

Dump ship's entire track history